CST,Max TemperatureF,Mean TemperatureF,Min TemperatureF,Max Dew PointF,MeanDew PointF,Min DewpointF,Max Humidity, Mean Humidity, Min Humidity, Max Sea Level PressureIn, Mean Sea Level PressureIn, Min Sea Level PressureIn, Max VisibilityMiles, Mean VisibilityMiles, Min VisibilityMiles, Max Wind SpeedMPH, Mean Wind SpeedMPH, Max Gust SpeedMPH,PrecipitationIn, CloudCover, Events, WindDirDegrees
2012-12-1,64,52,37,48,41,34,100,77,34,29.96,29.85,29.77,10,6,0,15,8,17,0.00,1,Fog,265
2012-12-2,64,48,32,54,40,30,100,77,49,30.05,29.93,29.77,10,7,4,20,8,23,0.00,0,,209
2012-12-3,68,60,51,54,41,25,82,53,20,30.12,29.85,29.68,10,10,7,25,19,33,0.00,1,,291
2012-12-4,62,47,32,32,22,16,69,40,16,30.35,30.28,30.13,10,10,7,12,8,,0.00,3,,337
2012-12-5,59,46,32,28,22,18,61,43,25,30.32,30.16,29.93,10,10,8,16,8,22,0.00,1,,182
2012-12-6,57,47,37,46,38,27,100,73,54,29.92,29.85,29.79,10,8,0,13,9,,0.00,4,Fog,63
2012-12-7,53,43,33,39,33,28,87,69,57,29.97,29.89,29.82,10,9,7,14,8,,0.00,7,,360
2012-12-8,44,34,24,39,31,23,93,81,65,29.98,29.90,29.79,10,7,4,10,6,,0.00,5,,33
2012-12-9,44,34,24,39,19,5,81,50,33,30.22,30.02,29.81,10,9,5,28,16,34,0.00,8,,353
2012-12-10,37,22,8,5,1,-2,67,40,20,30.21,30.11,30.00,10,10,7,23,12,30,0.00,3,,271
2012-12-11,48,32,17,12,9,3,63,40,22,30.13,30.08,30.02,10,9,5,12,7,,0.00,2,,202
2012-12-12,55,37,19,18,14,10,68,40,20,30.13,30.07,30.02,10,10,9,30,15,37,0.00,1,,183
2012-12-13,64,48,32,27,21,18,61,41,19,30.08,30.03,29.98,10,10,9,21,14,25,0.00,0,,190
2012-12-14,55,46,37,48,41,27,100,74,54,30.02,29.82,29.51,10,9,2,28,13,43,0.01,4,Rain-Thunderstorm,170
2012-12-15,64,50,35,41,35,32,87,59,34,29.75,29.66,29.49,10,10,10,28,16,39,0.00,1,,249
2012-12-16,42,35,28,37,34,28,100,89,81,29.82,29.73,29.68,10,7,2,13,7,,0.00,5,,338
2012-12-17,57,44,32,37,32,27,100,78,31,29.86,29.78,29.68,10,8,1,16,10,22,0.00,3,,255
2012-12-18,62,47,32,27,22,12,75,46,14,29.82,29.75,29.66,10,10,9,16,11,20,0.00,1,,209
2012-12-19,53,42,32,36,30,21,87,62,45,29.83,29.61,29.43,10,10,1,38,9,52,0.35,3,Snow,63
2012-12-20,44,34,23,27,12,3,80,47,18,30.33,30.21,29.85,10,10,5,36,24,50,0.01,1,Rain-Snow,308
2012-12-21,53,35,17,18,13,9,73,45,22,30.32,30.24,30.14,10,10,9,13,7,,0.00,0,,216
2012-12-22,60,43,26,19,12,7,56,34,14,30.14,30.01,29.92,10,10,9,16,9,18,0.00,1,,217
2012-12-23,44,34,23,25,22,18,86,67,43,30.01,29.95,29.88,10,10,6,14,10,17,0.00,0,,345
2012-12-24,33,25,17,19,16,14,93,67,48,30.08,30.01,29.94,10,9,6,21,10,25,0.00,0,,24
2012-12-25,24,19,14,16,11,5,86,69,54,30.32,30.13,29.97,10,8,0,30,20,38,0.31,6,Rain-Snow-Thunderstorm,14
2012-12-26,26,16,6,14,8,1,80,66,46,30.31,30.18,30.01,10,10,8,15,10,18,0.00,1,,57
2012-12-27,32,26,19,23,19,14,93,79,64,30.04,29.91,29.82,10,9,5,16,10,23,0.00,3,,145
2012-12-28,32,23,14,19,12,7,74,60,38,30.20,30.07,29.97,10,10,8,20,13,25,0.00,4,,335
2012-12-29,46,27,8,19,13,5,86,60,29,30.37,30.29,30.21,10,10,9,14,7,17,0.00,0,,263
2012-12-30,44,32,19,23,19,14,86,57,34,30.30,30.19,30.08,10,10,9,30,13,39,0.00,1,,194
2012-12-31,35,30,24,32,29,19,100,89,52,30.15,30.03,29.93,10,5,0,16,6,,1.00,8,Fog-Rain-Snow,76